sensor_id;sensor_type;location;lat;lon;timestamp;P1;durP1;ratioP1;P2;durP2;ratioP2
12601;SDS011;30282;16.436;99.370;2023-02-18T00:01:09;18.80;;;10.77;;
12601;SDS011;30282;16.436;99.370;2023-02-18T00:03:38;14.87;;;10.70;;
12601;SDS011;30282;16.436;99.370;2023-02-18T00:06:11;16.27;;;10.30;;
12601;SDS011;30282;16.436;99.370;2023-02-18T00:08:41;15.17;;;9.83;;
12601;SDS011;30282;16.436;99.370;2023-02-18T00:11:11;18.00;;;11.37;;
12601;SDS011;30282;16.436;99.370;2023-02-18T00:13:41;16.23;;;9.57;;
12601;SDS011;30282;16.436;99.370;2023-02-18T00:16:11;15.33;;;10.07;;
12601;SDS011;30282;16.436;99.370;2023-02-18T00:18:40;17.17;;;9.73;;
12601;SDS011;30282;16.436;99.370;2023-02-18T00:21:09;15.13;;;9.60;;
12601;SDS011;30282;16.436;99.370;2023-02-18T00:23:38;16.67;;;10.77;;
12601;SDS011;30282;16.436;99.370;2023-02-18T00:26:08;16.97;;;9.87;;
12601;SDS011;30282;16.436;99.370;2023-02-18T00:28:37;18.17;;;10.33;;
12601;SDS011;30282;16.436;99.370;2023-02-18T00:31:07;22.50;;;11.60;;
12601;SDS011;30282;16.436;99.370;2023-02-18T00:33:38;17.90;;;10.87;;
12601;SDS011;30282;16.436;99.370;2023-02-18T00:36:09;21.43;;;10.77;;
12601;SDS011;30282;16.436;99.370;2023-02-18T00:38:43;27.87;;;11.47;;
12601;SDS011;30282;16.436;99.370;2023-02-18T00:41:12;18.83;;;11.53;;
12601;SDS011;30282;16.436;99.370;2023-02-18T00:43:41;22.83;;;12.03;;
12601;SDS011;30282;16.436;99.370;2023-02-18T00:46:10;13.23;;;9.90;;
12601;SDS011;30282;16.436;99.370;2023-02-18T00:48:42;19.47;;;12.60;;
12601;SDS011;30282;16.436;99.370;2023-02-18T00:51:11;17.13;;;12.10;;
12601;SDS011;30282;16.436;99.370;2023-02-18T00:53:40;20.43;;;13.50;;
12601;SDS011;30282;16.436;99.370;2023-02-18T00:56:09;27.87;;;15.37;;
12601;SDS011;30282;16.436;99.370;2023-02-18T00:58:38;25.77;;;15.77;;
12601;SDS011;30282;16.436;99.370;2023-02-18T01:01:07;26.63;;;15.67;;
12601;SDS011;30282;16.436;99.370;2023-02-18T01:03:38;21.83;;;15.40;;
12601;SDS011;30282;16.436;99.370;2023-02-18T01:06:10;24.07;;;14.97;;
12601;SDS011;30282;16.436;99.370;2023-02-18T01:08:39;23.97;;;15.47;;
12601;SDS011;30282;16.436;99.370;2023-02-18T01:11:08;31.93;;;18.03;;
12601;SDS011;30282;16.436;99.370;2023-02-18T01:13:38;24.00;;;17.10;;
12601;SDS011;30282;16.436;99.370;2023-02-18T01:16:08;47.50;;;19.00;;
12601;SDS011;30282;16.436;99.370;2023-02-18T01:18:37;32.67;;;19.67;;
12601;SDS011;30282;16.436;99.370;2023-02-18T01:21:07;40.00;;;21.50;;
12601;SDS011;30282;16.436;99.370;2023-02-18T01:23:38;42.80;;;22.90;;
12601;SDS011;30282;16.436;99.370;2023-02-18T01:26:08;36.43;;;23.93;;
12601;SDS011;30282;16.436;99.370;2023-02-18T01:28:37;33.70;;;20.13;;
12601;SDS011;30282;16.436;99.370;2023-02-18T01:31:07;39.00;;;20.83;;
12601;SDS011;30282;16.436;99.370;2023-02-18T01:33:38;31.23;;;20.17;;
12601;SDS011;30282;16.436;99.370;2023-02-18T01:36:09;23.63;;;17.67;;
12601;SDS011;30282;16.436;99.370;2023-02-18T01:38:38;28.83;;;18.10;;
12601;SDS011;30282;16.436;99.370;2023-02-18T01:41:10;26.00;;;17.67;;
12601;SDS011;30282;16.436;99.370;2023-02-18T01:43:39;29.53;;;17.43;;
12601;SDS011;30282;16.436;99.370;2023-02-18T01:46:14;24.37;;;16.40;;
12601;SDS011;30282;16.436;99.370;2023-02-18T01:48:46;29.27;;;16.90;;
12601;SDS011;30282;16.436;99.370;2023-02-18T01:51:20;27.87;;;16.50;;
12601;SDS011;30282;16.436;99.370;2023-02-18T01:53:53;22.63;;;16.10;;
12601;SDS011;30282;16.436;99.370;2023-02-18T01:56:25;23.90;;;16.90;;
12601;SDS011;30282;16.436;99.370;2023-02-18T01:58:58;30.90;;;18.93;;
12601;SDS011;30282;16.436;99.370;2023-02-18T02:01:30;33.27;;;18.17;;
12601;SDS011;30282;16.436;99.370;2023-02-18T02:04:00;39.23;;;23.97;;
12601;SDS011;30282;16.436;99.370;2023-02-18T02:06:32;45.37;;;28.07;;
12601;SDS011;30282;16.436;99.370;2023-02-18T02:09:05;34.80;;;23.30;;
12601;SDS011;30282;16.436;99.370;2023-02-18T02:11:40;31.57;;;21.37;;
12601;SDS011;30282;16.436;99.370;2023-02-18T02:14:27;40.20;;;21.27;;
12601;SDS011;30282;16.436;99.370;2023-02-18T02:17:09;32.47;;;20.23;;
12601;SDS011;30282;16.436;99.370;2023-02-18T02:19:58;37.10;;;21.80;;
12601;SDS011;30282;16.436;99.370;2023-02-18T02:23:02;40.80;;;20.47;;
12601;SDS011;30282;16.436;99.370;2023-02-18T02:29:11;32.20;;;20.77;;
12601;SDS011;30282;16.436;99.370;2023-02-18T02:32:20;30.93;;;19.77;;
12601;SDS011;30282;16.436;99.370;2023-02-18T02:35:07;29.03;;;17.77;;
12601;SDS011;30282;16.436;99.370;2023-02-18T02:37:41;29.17;;;18.00;;
12601;SDS011;30282;16.436;99.370;2023-02-18T02:40:20;30.20;;;19.70;;
12601;SDS011;30282;16.436;99.370;2023-02-18T02:43:00;31.23;;;20.13;;
12601;SDS011;30282;16.436;99.370;2023-02-18T02:45:42;25.77;;;17.70;;
12601;SDS011;30282;16.436;99.370;2023-02-18T02:48:21;26.50;;;16.87;;
12601;SDS011;30282;16.436;99.370;2023-02-18T02:50:59;23.60;;;14.83;;
12601;SDS011;30282;16.436;99.370;2023-02-18T02:53:34;31.37;;;17.00;;
12601;SDS011;30282;16.436;99.370;2023-02-18T02:56:08;27.07;;;18.80;;
12601;SDS011;30282;16.436;99.370;2023-02-18T02:58:41;30.10;;;17.80;;
12601;SDS011;30282;16.436;99.370;2023-02-18T03:01:17;29.73;;;16.40;;
12601;SDS011;30282;16.436;99.370;2023-02-18T03:04:01;22.30;;;15.40;;
12601;SDS011;30282;16.436;99.370;2023-02-18T03:06:56;25.77;;;16.20;;
12601;SDS011;30282;16.436;99.370;2023-02-18T03:09:40;26.60;;;16.80;;
12601;SDS011;30282;16.436;99.370;2023-02-18T03:12:24;26.80;;;17.70;;
12601;SDS011;30282;16.436;99.370;2023-02-18T03:15:03;24.50;;;17.53;;
12601;SDS011;30282;16.436;99.370;2023-02-18T03:17:39;25.97;;;18.00;;
12601;SDS011;30282;16.436;99.370;2023-02-18T03:22:52;28.10;;;18.70;;
12601;SDS011;30282;16.436;99.370;2023-02-18T03:25:22;32.03;;;20.80;;
12601;SDS011;30282;16.436;99.370;2023-02-18T03:27:52;34.63;;;19.93;;
12601;SDS011;30282;16.436;99.370;2023-02-18T03:30:26;29.50;;;20.17;;
12601;SDS011;30282;16.436;99.370;2023-02-18T03:32:58;32.13;;;21.30;;
12601;SDS011;30282;16.436;99.370;2023-02-18T03:35:30;32.20;;;19.50;;
12601;SDS011;30282;16.436;99.370;2023-02-18T03:38:01;32.80;;;20.40;;
12601;SDS011;30282;16.436;99.370;2023-02-18T03:40:35;34.40;;;19.60;;
12601;SDS011;30282;16.436;99.370;2023-02-18T03:43:04;27.97;;;18.30;;
12601;SDS011;30282;16.436;99.370;2023-02-18T03:45:36;27.83;;;19.33;;
12601;SDS011;30282;16.436;99.370;2023-02-18T03:48:05;25.23;;;16.73;;
12601;SDS011;30282;16.436;99.370;2023-02-18T03:50:35;27.10;;;18.87;;
12601;SDS011;30282;16.436;99.370;2023-02-18T03:53:05;29.33;;;19.23;;
12601;SDS011;30282;16.436;99.370;2023-02-18T03:55:34;28.77;;;19.93;;
12601;SDS011;30282;16.436;99.370;2023-02-18T03:58:03;36.70;;;23.00;;
12601;SDS011;30282;16.436;99.370;2023-02-18T04:00:32;40.30;;;22.47;;
12601;SDS011;30282;16.436;99.370;2023-02-18T04:03:01;29.30;;;19.07;;
12601;SDS011;30282;16.436;99.370;2023-02-18T04:05:30;32.50;;;20.10;;
12601;SDS011;30282;16.436;99.370;2023-02-18T04:07:59;30.90;;;20.60;;
12601;SDS011;30282;16.436;99.370;2023-02-18T04:10:29;38.57;;;21.70;;
12601;SDS011;30282;16.436;99.370;2023-02-18T04:12:58;32.40;;;21.63;;
12601;SDS011;30282;16.436;99.370;2023-02-18T04:15:27;39.77;;;23.00;;
12601;SDS011;30282;16.436;99.370;2023-02-18T04:17:56;36.37;;;21.40;;
12601;SDS011;30282;16.436;99.370;2023-02-18T04:20:25;34.63;;;20.67;;
12601;SDS011;30282;16.436;99.370;2023-02-18T04:22:54;34.83;;;20.50;;
12601;SDS011;30282;16.436;99.370;2023-02-18T04:25:23;30.90;;;21.10;;
12601;SDS011;30282;16.436;99.370;2023-02-18T04:27:55;29.40;;;20.43;;
12601;SDS011;30282;16.436;99.370;2023-02-18T04:30:24;35.13;;;21.33;;
12601;SDS011;30282;16.436;99.370;2023-02-18T04:32:53;27.60;;;20.90;;
12601;SDS011;30282;16.436;99.370;2023-02-18T04:35:22;34.10;;;22.30;;
12601;SDS011;30282;16.436;99.370;2023-02-18T04:37:51;33.27;;;22.23;;
12601;SDS011;30282;16.436;99.370;2023-02-18T04:40:20;29.73;;;20.70;;
12601;SDS011;30282;16.436;99.370;2023-02-18T04:42:50;28.83;;;18.67;;
12601;SDS011;30282;16.436;99.370;2023-02-18T04:45:23;30.73;;;21.07;;
12601;SDS011;30282;16.436;99.370;2023-02-18T04:47:53;29.30;;;20.70;;
12601;SDS011;30282;16.436;99.370;2023-02-18T04:50:27;32.60;;;20.27;;
12601;SDS011;30282;16.436;99.370;2023-02-18T04:52:59;27.77;;;20.43;;
12601;SDS011;30282;16.436;99.370;2023-02-18T04:55:28;29.83;;;19.87;;
12601;SDS011;30282;16.436;99.370;2023-02-18T04:58:00;30.90;;;19.60;;
12601;SDS011;30282;16.436;99.370;2023-02-18T05:00:34;29.17;;;19.60;;
12601;SDS011;30282;16.436;99.370;2023-02-18T05:03:03;31.77;;;21.50;;
12601;SDS011;30282;16.436;99.370;2023-02-18T05:05:31;30.27;;;20.93;;
12601;SDS011;30282;16.436;99.370;2023-02-18T05:08:00;28.10;;;20.10;;
12601;SDS011;30282;16.436;99.370;2023-02-18T05:10:29;28.33;;;19.10;;
12601;SDS011;30282;16.436;99.370;2023-02-18T05:12:59;31.80;;;18.90;;
12601;SDS011;30282;16.436;99.370;2023-02-18T05:15:30;26.37;;;18.97;;
12601;SDS011;30282;16.436;99.370;2023-02-18T05:18:05;26.60;;;18.43;;
12601;SDS011;30282;16.436;99.370;2023-02-18T05:20:34;27.87;;;17.73;;
12601;SDS011;30282;16.436;99.370;2023-02-18T05:23:04;21.50;;;15.80;;
12601;SDS011;30282;16.436;99.370;2023-02-18T05:25:33;27.20;;;17.23;;
12601;SDS011;30282;16.436;99.370;2023-02-18T05:28:02;29.90;;;18.60;;
12601;SDS011;30282;16.436;99.370;2023-02-18T05:30:34;30.83;;;17.97;;
12601;SDS011;30282;16.436;99.370;2023-02-18T05:33:03;28.63;;;16.07;;
12601;SDS011;30282;16.436;99.370;2023-02-18T05:35:36;27.00;;;16.80;;
12601;SDS011;30282;16.436;99.370;2023-02-18T05:38:05;30.43;;;21.10;;
12601;SDS011;30282;16.436;99.370;2023-02-18T05:40:34;43.83;;;19.47;;
12601;SDS011;30282;16.436;99.370;2023-02-18T05:43:03;26.20;;;19.30;;
12601;SDS011;30282;16.436;99.370;2023-02-18T05:45:32;31.53;;;18.80;;
12601;SDS011;30282;16.436;99.370;2023-02-18T05:48:02;27.73;;;19.93;;
12601;SDS011;30282;16.436;99.370;2023-02-18T05:50:33;42.87;;;24.13;;
12601;SDS011;30282;16.436;99.370;2023-02-18T05:53:02;39.57;;;22.87;;
12601;SDS011;30282;16.436;99.370;2023-02-18T05:55:31;31.80;;;21.27;;
12601;SDS011;30282;16.436;99.370;2023-02-18T05:58:03;29.70;;;22.13;;
12601;SDS011;30282;16.436;99.370;2023-02-18T06:00:32;27.30;;;20.83;;
12601;SDS011;30282;16.436;99.370;2023-02-18T06:03:01;35.23;;;24.77;;
12601;SDS011;30282;16.436;99.370;2023-02-18T06:05:32;37.50;;;27.97;;
12601;SDS011;30282;16.436;99.370;2023-02-18T06:08:07;31.83;;;24.20;;
12601;SDS011;30282;16.436;99.370;2023-02-18T06:10:36;28.13;;;22.30;;
12601;SDS011;30282;16.436;99.370;2023-02-18T06:13:06;24.97;;;18.73;;
12601;SDS011;30282;16.436;99.370;2023-02-18T06:15:35;27.77;;;17.57;;
12601;SDS011;30282;16.436;99.370;2023-02-18T06:18:05;23.27;;;17.30;;
12601;SDS011;30282;16.436;99.370;2023-02-18T06:23:06;32.10;;;25.57;;
12601;SDS011;30282;16.436;99.370;2023-02-18T06:25:35;36.73;;;23.83;;
12601;SDS011;30282;16.436;99.370;2023-02-18T06:28:04;24.47;;;18.63;;
12601;SDS011;30282;16.436;99.370;2023-02-18T06:30:33;26.20;;;21.20;;
12601;SDS011;30282;16.436;99.370;2023-02-18T06:33:04;29.63;;;20.30;;
12601;SDS011;30282;16.436;99.370;2023-02-18T06:35:33;33.37;;;18.93;;
12601;SDS011;30282;16.436;99.370;2023-02-18T06:38:03;24.07;;;17.63;;
12601;SDS011;30282;16.436;99.370;2023-02-18T06:40:32;23.90;;;18.13;;
12601;SDS011;30282;16.436;99.370;2023-02-18T06:43:01;24.63;;;16.67;;
12601;SDS011;30282;16.436;99.370;2023-02-18T06:45:30;19.20;;;16.50;;
12601;SDS011;30282;16.436;99.370;2023-02-18T06:47:59;22.77;;;15.97;;
12601;SDS011;30282;16.436;99.370;2023-02-18T06:50:28;32.73;;;15.17;;
12601;SDS011;30282;16.436;99.370;2023-02-18T06:52:57;18.10;;;14.40;;
12601;SDS011;30282;16.436;99.370;2023-02-18T06:55:28;31.03;;;13.97;;
12601;SDS011;30282;16.436;99.370;2023-02-18T06:57:57;20.67;;;14.00;;
12601;SDS011;30282;16.436;99.370;2023-02-18T07:00:26;22.50;;;15.50;;
12601;SDS011;30282;16.436;99.370;2023-02-18T07:02:55;19.27;;;14.63;;
12601;SDS011;30282;16.436;99.370;2023-02-18T07:05:24;16.30;;;12.30;;
12601;SDS011;30282;16.436;99.370;2023-02-18T07:07:56;28.83;;;14.90;;
12601;SDS011;30282;16.436;99.370;2023-02-18T07:10:25;22.87;;;14.80;;
12601;SDS011;30282;16.436;99.370;2023-02-18T07:12:56;22.77;;;15.57;;
12601;SDS011;30282;16.436;99.370;2023-02-18T07:15:25;22.40;;;15.23;;
12601;SDS011;30282;16.436;99.370;2023-02-18T07:17:57;29.33;;;14.83;;
12601;SDS011;30282;16.436;99.370;2023-02-18T07:20:28;21.10;;;15.23;;
12601;SDS011;30282;16.436;99.370;2023-02-18T07:22:57;29.30;;;15.10;;
12601;SDS011;30282;16.436;99.370;2023-02-18T07:25:28;27.73;;;15.00;;
12601;SDS011;30282;16.436;99.370;2023-02-18T07:27:57;21.47;;;14.53;;
12601;SDS011;30282;16.436;99.370;2023-02-18T07:30:26;21.53;;;14.80;;
12601;SDS011;30282;16.436;99.370;2023-02-18T07:32:55;22.60;;;14.33;;
12601;SDS011;30282;16.436;99.370;2023-02-18T07:35:24;23.70;;;15.67;;
12601;SDS011;30282;16.436;99.370;2023-02-18T07:37:53;19.87;;;13.70;;
12601;SDS011;30282;16.436;99.370;2023-02-18T07:40:22;19.30;;;13.87;;
12601;SDS011;30282;16.436;99.370;2023-02-18T07:42:53;24.90;;;15.03;;
12601;SDS011;30282;16.436;99.370;2023-02-18T07:45:22;19.70;;;14.90;;
12601;SDS011;30282;16.436;99.370;2023-02-18T07:47:51;24.03;;;14.30;;
12601;SDS011;30282;16.436;99.370;2023-02-18T07:50:20;22.40;;;14.33;;
12601;SDS011;30282;16.436;99.370;2023-02-18T07:52:52;20.30;;;13.80;;
12601;SDS011;30282;16.436;99.370;2023-02-18T07:55:23;22.93;;;12.33;;
12601;SDS011;30282;16.436;99.370;2023-02-18T07:58:14;17.83;;;11.60;;
12601;SDS011;30282;16.436;99.370;2023-02-18T08:00:43;17.80;;;11.80;;
12601;SDS011;30282;16.436;99.370;2023-02-18T08:03:14;17.77;;;11.80;;
12601;SDS011;30282;16.436;99.370;2023-02-18T08:05:43;15.03;;;10.70;;
12601;SDS011;30282;16.436;99.370;2023-02-18T08:08:12;17.20;;;11.60;;
12601;SDS011;30282;16.436;99.370;2023-02-18T08:10:42;14.93;;;11.40;;
12601;SDS011;30282;16.436;99.370;2023-02-18T08:13:11;21.03;;;12.97;;
12601;SDS011;30282;16.436;99.370;2023-02-18T08:15:42;16.47;;;10.50;;
12601;SDS011;30282;16.436;99.370;2023-02-18T08:18:13;18.07;;;11.40;;
12601;SDS011;30282;16.436;99.370;2023-02-18T08:20:44;20.13;;;10.10;;
12601;SDS011;30282;16.436;99.370;2023-02-18T08:23:14;13.27;;;9.73;;
12601;SDS011;30282;16.436;99.370;2023-02-18T08:25:44;14.30;;;9.30;;
12601;SDS011;30282;16.436;99.370;2023-02-18T08:28:15;16.63;;;9.83;;
12601;SDS011;30282;16.436;99.370;2023-02-18T08:30:45;17.70;;;9.43;;
12601;SDS011;30282;16.436;99.370;2023-02-18T08:33:15;14.70;;;10.80;;
12601;SDS011;30282;16.436;99.370;2023-02-18T08:35:50;14.83;;;9.60;;
12601;SDS011;30282;16.436;99.370;2023-02-18T08:38:24;14.67;;;10.73;;
12601;SDS011;30282;16.436;99.370;2023-02-18T08:41:00;20.47;;;10.53;;
12601;SDS011;30282;16.436;99.370;2023-02-18T08:43:33;14.20;;;10.60;;
12601;SDS011;30282;16.436;99.370;2023-02-18T08:46:03;16.30;;;11.70;;
12601;SDS011;30282;16.436;99.370;2023-02-18T08:48:32;15.63;;;11.50;;
12601;SDS011;30282;16.436;99.370;2023-02-18T08:51:09;20.10;;;11.63;;
12601;SDS011;30282;16.436;99.370;2023-02-18T08:53:39;18.33;;;12.47;;
12601;SDS011;30282;16.436;99.370;2023-02-18T08:56:09;15.17;;;10.40;;
12601;SDS011;30282;16.436;99.370;2023-02-18T08:58:43;18.27;;;11.60;;
12601;SDS011;30282;16.436;99.370;2023-02-18T09:01:12;16.97;;;10.60;;
12601;SDS011;30282;16.436;99.370;2023-02-18T09:03:41;18.53;;;12.50;;
12601;SDS011;30282;16.436;99.370;2023-02-18T09:06:13;20.70;;;11.83;;
12601;SDS011;30282;16.436;99.370;2023-02-18T09:08:45;23.83;;;10.43;;
12601;SDS011;30282;16.436;99.370;2023-02-18T09:11:14;14.30;;;10.90;;
12601;SDS011;30282;16.436;99.370;2023-02-18T09:13:46;14.87;;;9.90;;
12601;SDS011;30282;16.436;99.370;2023-02-18T09:16:15;15.07;;;10.20;;
12601;SDS011;30282;16.436;99.370;2023-02-18T09:18:45;14.23;;;9.60;;
12601;SDS011;30282;16.436;99.370;2023-02-18T09:21:15;16.70;;;10.93;;
12601;SDS011;30282;16.436;99.370;2023-02-18T09:23:45;12.40;;;8.97;;
12601;SDS011;30282;16.436;99.370;2023-02-18T09:26:15;14.83;;;10.03;;
12601;SDS011;30282;16.436;99.370;2023-02-18T09:28:47;19.50;;;10.50;;
12601;SDS011;30282;16.436;99.370;2023-02-18T09:31:18;16.20;;;9.53;;
12601;SDS011;30282;16.436;99.370;2023-02-18T09:33:50;17.60;;;10.20;;
12601;SDS011;30282;16.436;99.370;2023-02-18T09:36:21;14.70;;;9.83;;
12601;SDS011;30282;16.436;99.370;2023-02-18T09:38:50;17.17;;;11.47;;
12601;SDS011;30282;16.436;99.370;2023-02-18T09:41:23;18.20;;;11.20;;
12601;SDS011;30282;16.436;99.370;2023-02-18T09:43:58;16.40;;;10.77;;
12601;SDS011;30282;16.436;99.370;2023-02-18T09:46:30;15.97;;;10.50;;
12601;SDS011;30282;16.436;99.370;2023-02-18T09:49:02;16.07;;;10.50;;
12601;SDS011;30282;16.436;99.370;2023-02-18T09:51:35;16.70;;;10.33;;
12601;SDS011;30282;16.436;99.370;2023-02-18T09:54:06;19.53;;;10.77;;
12601;SDS011;30282;16.436;99.370;2023-02-18T09:56:36;15.77;;;10.00;;
12601;SDS011;30282;16.436;99.370;2023-02-18T09:59:10;22.93;;;11.00;;
12601;SDS011;30282;16.436;99.370;2023-02-18T10:01:43;16.73;;;10.33;;
12601;SDS011;30282;16.436;99.370;2023-02-18T10:04:14;14.63;;;10.40;;
12601;SDS011;30282;16.436;99.370;2023-02-18T10:06:48;20.83;;;11.90;;
12601;SDS011;30282;16.436;99.370;2023-02-18T10:09:19;18.70;;;12.17;;
12601;SDS011;30282;16.436;99.370;2023-02-18T10:11:54;24.97;;;10.97;;
12601;SDS011;30282;16.436;99.370;2023-02-18T10:14:27;15.00;;;11.20;;
12601;SDS011;30282;16.436;99.370;2023-02-18T10:16:59;17.77;;;10.60;;
12601;SDS011;30282;16.436;99.370;2023-02-18T10:19:28;15.80;;;11.40;;
12601;SDS011;30282;16.436;99.370;2023-02-18T10:22:00;15.00;;;10.10;;
12601;SDS011;30282;16.436;99.370;2023-02-18T10:24:31;14.87;;;10.90;;
12601;SDS011;30282;16.436;99.370;2023-02-18T10:27:04;22.00;;;10.80;;
12601;SDS011;30282;16.436;99.370;2023-02-18T10:29:36;18.07;;;11.07;;
12601;SDS011;30282;16.436;99.370;2023-02-18T10:32:06;16.67;;;11.50;;
12601;SDS011;30282;16.436;99.370;2023-02-18T10:34:52;15.53;;;12.07;;
12601;SDS011;30282;16.436;99.370;2023-02-18T10:37:27;24.40;;;16.27;;
12601;SDS011;30282;16.436;99.370;2023-02-18T10:40:10;35.33;;;24.40;;
12601;SDS011;30282;16.436;99.370;2023-02-18T10:42:51;33.63;;;21.33;;
12601;SDS011;30282;16.436;99.370;2023-02-18T10:45:35;24.20;;;15.50;;
12601;SDS011;30282;16.436;99.370;2023-02-18T10:51:07;21.17;;;14.53;;
12601;SDS011;30282;16.436;99.370;2023-02-18T10:53:44;19.63;;;13.27;;
12601;SDS011;30282;16.436;99.370;2023-02-18T10:59:09;31.77;;;17.27;;
12601;SDS011;30282;16.436;99.370;2023-02-18T11:01:42;38.67;;;19.10;;
12601;SDS011;30282;16.436;99.370;2023-02-18T11:04:12;38.87;;;19.90;;
12601;SDS011;30282;16.436;99.370;2023-02-18T11:06:44;45.07;;;22.00;;
12601;SDS011;30282;16.436;99.370;2023-02-18T11:09:31;42.37;;;20.90;;
12601;SDS011;30282;16.436;99.370;2023-02-18T11:12:12;38.60;;;21.50;;
12601;SDS011;30282;16.436;99.370;2023-02-18T11:14:45;40.73;;;22.03;;
12601;SDS011;30282;16.436;99.370;2023-02-18T11:17:19;38.20;;;22.50;;
12601;SDS011;30282;16.436;99.370;2023-02-18T11:19:53;38.17;;;22.30;;
12601;SDS011;30282;16.436;99.370;2023-02-18T11:22:27;38.00;;;21.90;;
12601;SDS011;30282;16.436;99.370;2023-02-18T11:24:58;40.63;;;22.53;;
12601;SDS011;30282;16.436;99.370;2023-02-18T11:27:31;51.07;;;25.43;;
12601;SDS011;30282;16.436;99.370;2023-02-18T11:30:15;49.30;;;24.73;;
12601;SDS011;30282;16.436;99.370;2023-02-18T11:32:48;55.37;;;23.27;;
12601;SDS011;30282;16.436;99.370;2023-02-18T11:35:20;47.47;;;24.60;;
12601;SDS011;30282;16.436;99.370;2023-02-18T11:37:51;44.10;;;25.03;;
12601;SDS011;30282;16.436;99.370;2023-02-18T11:40:22;59.07;;;24.50;;
12601;SDS011;30282;16.436;99.370;2023-02-18T11:42:53;47.13;;;22.50;;
12601;SDS011;30282;16.436;99.370;2023-02-18T11:45:31;42.30;;;22.93;;
12601;SDS011;30282;16.436;99.370;2023-02-18T11:48:05;57.27;;;24.77;;
12601;SDS011;30282;16.436;99.370;2023-02-18T11:50:36;40.73;;;25.60;;
12601;SDS011;30282;16.436;99.370;2023-02-18T11:53:23;44.27;;;25.60;;
12601;SDS011;30282;16.436;99.370;2023-02-18T11:55:55;41.47;;;24.80;;
12601;SDS011;30282;16.436;99.370;2023-02-18T11:58:26;42.03;;;24.50;;
12601;SDS011;30282;16.436;99.370;2023-02-18T12:01:04;38.23;;;24.10;;
12601;SDS011;30282;16.436;99.370;2023-02-18T12:03:42;52.60;;;26.33;;
12601;SDS011;30282;16.436;99.370;2023-02-18T12:06:17;48.17;;;29.63;;
12601;SDS011;30282;16.436;99.370;2023-02-18T12:08:51;57.43;;;30.50;;
12601;SDS011;30282;16.436;99.370;2023-02-18T12:11:27;55.83;;;29.77;;
12601;SDS011;30282;16.436;99.370;2023-02-18T12:14:00;60.93;;;30.50;;
12601;SDS011;30282;16.436;99.370;2023-02-18T12:16:32;48.83;;;28.27;;
12601;SDS011;30282;16.436;99.370;2023-02-18T18:02:31;46.67;;;31.70;;
12601;SDS011;30282;16.436;99.370;2023-02-18T18:05:00;45.53;;;31.73;;
12601;SDS011;30282;16.436;99.370;2023-02-18T18:07:29;44.93;;;30.80;;
12601;SDS011;30282;16.436;99.370;2023-02-18T18:09:58;45.33;;;31.50;;
12601;SDS011;30282;16.436;99.370;2023-02-18T18:12:28;51.40;;;31.20;;
12601;SDS011;30282;16.436;99.370;2023-02-18T18:14:57;46.23;;;30.97;;
12601;SDS011;30282;16.436;99.370;2023-02-18T18:17:29;41.33;;;29.77;;
12601;SDS011;30282;16.436;99.370;2023-02-18T18:23:20;40.20;;;30.90;;
12601;SDS011;30282;16.436;99.370;2023-02-18T18:25:50;39.57;;;29.00;;
12601;SDS011;30282;16.436;99.370;2023-02-18T18:28:20;39.90;;;29.47;;
12601;SDS011;30282;16.436;99.370;2023-02-18T18:30:51;39.43;;;28.60;;
12601;SDS011;30282;16.436;99.370;2023-02-18T18:33:23;42.30;;;29.47;;
12601;SDS011;30282;16.436;99.370;2023-02-18T18:56:09;40.40;;;29.43;;
12601;SDS011;30282;16.436;99.370;2023-02-18T18:58:39;38.33;;;29.90;;
12601;SDS011;30282;16.436;99.370;2023-02-18T19:01:12;40.23;;;30.30;;
12601;SDS011;30282;16.436;99.370;2023-02-18T19:03:43;54.40;;;33.20;;
12601;SDS011;30282;16.436;99.370;2023-02-18T19:06:13;46.03;;;31.90;;
12601;SDS011;30282;16.436;99.370;2023-02-18T19:08:43;45.53;;;34.57;;
12601;SDS011;30282;16.436;99.370;2023-02-18T19:11:14;56.13;;;37.47;;
12601;SDS011;30282;16.436;99.370;2023-02-18T19:13:43;49.83;;;36.97;;
12601;SDS011;30282;16.436;99.370;2023-02-18T19:16:15;52.57;;;36.83;;
12601;SDS011;30282;16.436;99.370;2023-02-18T19:18:47;52.00;;;37.53;;
12601;SDS011;30282;16.436;99.370;2023-02-18T19:21:16;50.87;;;38.40;;
12601;SDS011;30282;16.436;99.370;2023-02-18T19:23:45;51.90;;;37.90;;
12601;SDS011;30282;16.436;99.370;2023-02-18T19:26:17;53.07;;;36.90;;
12601;SDS011;30282;16.436;99.370;2023-02-18T19:28:46;53.23;;;37.43;;
12601;SDS011;30282;16.436;99.370;2023-02-18T19:31:16;47.30;;;36.10;;
12601;SDS011;30282;16.436;99.370;2023-02-18T19:33:48;51.40;;;33.60;;
12601;SDS011;30282;16.436;99.370;2023-02-18T19:36:18;46.20;;;31.43;;
12601;SDS011;30282;16.436;99.370;2023-02-18T19:38:47;45.13;;;32.00;;
12601;SDS011;30282;16.436;99.370;2023-02-18T19:41:19;47.53;;;33.83;;
12601;SDS011;30282;16.436;99.370;2023-02-18T19:43:48;45.70;;;33.00;;
12601;SDS011;30282;16.436;99.370;2023-02-18T19:46:19;51.50;;;33.27;;
12601;SDS011;30282;16.436;99.370;2023-02-18T19:48:48;47.50;;;33.97;;
12601;SDS011;30282;16.436;99.370;2023-02-18T19:51:18;43.00;;;33.17;;
12601;SDS011;30282;16.436;99.370;2023-02-18T19:53:49;46.23;;;34.53;;
12601;SDS011;30282;16.436;99.370;2023-02-18T19:56:20;45.10;;;34.10;;
12601;SDS011;30282;16.436;99.370;2023-02-18T19:58:53;43.60;;;34.50;;
12601;SDS011;30282;16.436;99.370;2023-02-18T20:01:22;47.87;;;34.87;;
12601;SDS011;30282;16.436;99.370;2023-02-18T20:03:52;50.03;;;36.90;;
12601;SDS011;30282;16.436;99.370;2023-02-18T20:06:21;53.17;;;38.33;;
12601;SDS011;30282;16.436;99.370;2023-02-18T20:08:50;55.63;;;40.50;;
12601;SDS011;30282;16.436;99.370;2023-02-18T20:11:21;53.53;;;39.93;;
12601;SDS011;30282;16.436;99.370;2023-02-18T20:13:50;50.60;;;36.60;;
12601;SDS011;30282;16.436;99.370;2023-02-18T20:16:19;58.90;;;39.73;;
12601;SDS011;30282;16.436;99.370;2023-02-18T20:18:48;50.73;;;39.13;;
12601;SDS011;30282;16.436;99.370;2023-02-18T20:21:18;55.97;;;39.23;;
12601;SDS011;30282;16.436;99.370;2023-02-18T20:23:47;54.50;;;39.10;;
12601;SDS011;30282;16.436;99.370;2023-02-18T20:26:22;54.60;;;40.20;;
12601;SDS011;30282;16.436;99.370;2023-02-18T20:28:51;49.40;;;38.80;;
12601;SDS011;30282;16.436;99.370;2023-02-18T20:31:21;53.00;;;38.60;;
12601;SDS011;30282;16.436;99.370;2023-02-18T20:33:54;51.53;;;37.63;;
12601;SDS011;30282;16.436;99.370;2023-02-18T20:36:23;50.27;;;37.10;;
12601;SDS011;30282;16.436;99.370;2023-02-18T20:38:53;54.60;;;38.53;;
12601;SDS011;30282;16.436;99.370;2023-02-18T20:41:24;50.03;;;37.73;;
12601;SDS011;30282;16.436;99.370;2023-02-18T20:43:56;56.73;;;41.03;;
12601;SDS011;30282;16.436;99.370;2023-02-18T20:46:26;60.23;;;40.73;;
12601;SDS011;30282;16.436;99.370;2023-02-18T20:48:55;51.93;;;37.37;;
12601;SDS011;30282;16.436;99.370;2023-02-18T20:51:25;52.63;;;39.60;;
12601;SDS011;30282;16.436;99.370;2023-02-18T20:53:54;51.57;;;38.03;;
12601;SDS011;30282;16.436;99.370;2023-02-18T20:56:25;53.70;;;38.87;;